Barraute, Canada
Current Conditions -  °F | °C
As of 8:25 PM on Sunday 23 Nov 2014 (Local Time) from CYVO Reporting Station
Haze Haze  
Wind Chill: 28°   Ceiling: 200
Heat Index: 37°   Visibility: 1.5mi
Dew Point: 37°   Wind: 16mph
Humidity: 100%   Direction: 170°S
Pressure: 29.68"   Gusts: NA
Location:  48.43°N, 77.63°W
Report Text: CYVO 240125Z 17014KT 1 1/2SM BR OVC002 03/03 A2968 RMK ST8 SLP069
Loading
Personal Weather Stations






























Interactive Weather Map New forecast layout! Learn more

10-Day Weather Forecast

Advertisements
Track Severe Weather on mobile